Saturday, February 24, 2018, 3:14 AM EST
Back to Local

KRUT, Rutland, Rutland-southern Vermont Regional Airport

Location: North Clarendon, VT, United States Lat: 43.533
Local Time: 3:14 AM EST ( 8:14 GMT) Lon: -72.95
Time Zone: US/Eastern Elev: 787 ft

Show me the last for .
Show Decoded

2018-02-24 02:56 METAR KRUT 240756Z AUTO 36004KT 10SM BKN016 BKN021 OVC029 03/03 A3004 RMK AO2
                 SLP196 T00330033 $ =
2018-02-24 01:56 METAR KRUT 240656Z AUTO 00000KT 10SM OVC013 05/03 A3005 RMK AO2 SLP202 T00500033
                 $ =
2018-02-24 00:56 METAR KRUT 240556Z AUTO VRB05KT 10SM OVC011 04/04 A3005 RMK AO2 SLP201 60006
                 T00440039 10044 20006 56010 $ =
2018-02-23 23:56 METAR KRUT 240456Z AUTO 00000KT 9SM OVC011 04/03 A3005 RMK AO2 SLP200 T00390033
                 400391083 $ =
2018-02-23 23:18 METAR KRUT 240418Z AUTO 29005KT 6SM BR OVC013 02/02 A3005 RMK AO2 FZRANO $ =
2018-02-23 22:56 METAR KRUT 240356Z AUTO 00000KT 2SM BR FEW001 OVC013 01/01 A3005 RMK AO2 VIS 1
                 1/4V4 SLP198 T00110006 FZRANO $ =
2018-02-23 22:34 METAR KRUT 240334Z AUTO 00000KT 1 1/2SM BR SCT001 OVC013 01/01 A3006 RMK AO2
                 FZRANO $ =
2018-02-23 22:21 METAR KRUT 240321Z AUTO 00000KT 2 1/2SM BR FEW001 OVC013 01/01 A3007 RMK AO2
                 FZRANO $ =
2018-02-23 22:12 METAR KRUT 240312Z AUTO 00000KT 1 1/4SM BR OVC013 01/01 A3007 RMK AO2 VIS 3/4V2
                 FZRANO $ =
2018-02-23 22:01 METAR KRUT 240301Z AUTO 00000KT 3/4SM BR OVC013 01/01 A3007 RMK AO2 FZRANO $ =
2018-02-23 21:56 METAR KRUT 240256Z AUTO 00000KT 1 1/4SM BR OVC013 01/01 A3008 RMK AO2
                 UPB34E53RAB53E54 SLP209 P0000 60006 T00110006 58030 FZRANO $ =
2018-02-23 21:54 METAR KRUT 240254Z AUTO 00000KT 1 1/2SM BR OVC013 01/01 A3008 RMK AO2
                 UPB34E53RAB53E54 P0000 FZRANO $ =
2018-02-23 21:43 METAR KRUT 240243Z AUTO 00000KT 4SM UP BR OVC013 01/01 A3009 RMK AO2 UPB34 P0000
                 FZRANO $ =
2018-02-23 20:56 METAR KRUT 240156Z AUTO 06004KT 10SM OVC015 01/01 A3012 RMK AO2 RAE25 SLP222
                 P0001 T00110006 FZRANO $ =
2018-02-23 19:56 METAR KRUT 240056Z AUTO 13008KT 10SM -RA OVC015 01/01 A3014 RMK AO2
                 RAE18B40UPB18E40 SLP228 P0005 T00110006 FZRANO $ =
2018-02-23 18:56 METAR KRUT 232356Z AUTO 13008KT 7SM -RA OVC015 01/00 A3017 RMK AO2 SLP240 P0004
                 60008 T00060000 10017 20000 56033 FZRANO $ =
2018-02-23 17:56 METAR KRUT 232256Z AUTO 14010KT 10SM -RA OVC017 01/M01 A3020 RMK AO2 SLP247
                 P0002 T00061006 FZRANO $ =
2018-02-23 16:56 METAR KRUT 232156Z AUTO 13014G19KT 10SM -RA OVC021 01/M02 A3022 RMK AO2 UPB38E43
                 SLP255 P0000 T00061017 FZRANO $ =
2018-02-23 15:56 METAR KRUT 232056Z AUTO 15013G18KT 10SM -RA OVC019 01/M02 A3027 RMK AO2
                 UPB1959E55RAB13E28B55 SLP272 P0002 60002 T00061017 58043 FZRANO $ =
2018-02-23 14:56 METAR KRUT 231956Z AUTO 13016G19KT 10SM OVC025 01/M03 A3032 RMK AO2
                 RAE42UPB44E56 SLP290 P0000 T00061033 FZRANO $ =
2018-02-23 14:41 METAR KRUT 231941Z AUTO 14013KT 10SM -RA OVC027 01/M04 A3035 RMK AO2 P0000
                 FZRANO $ =
2018-02-23 13:56 METAR KRUT 231856Z AUTO 14017G23KT 10SM -RA FEW033 OVC041 02/M07 A3036 RMK AO2
                 RAB41 SLP304 P0000 T00171067 FZRANO $ =
2018-02-23 12:56 METAR KRUT 231756Z AUTO 13018G23KT 10SM SCT037 OVC048 02/M08 A3040 RMK AO2
                 PRESFR SLP319 60004 T00171078 10022 21056 58051 FZRANO $ =
2018-02-23 11:56 METAR KRUT 231656Z AUTO 14013G19KT 10SM OVC070 02/M07 A3047 RMK AO2 SLP341
                 T00221072 FZRANO $ =
2018-02-23 10:56 METAR KRUT 231556Z AUTO 13011G18KT 10SM FEW085 02/M07 A3052 RMK AO2 SLP358 P0001
                 T00171067 FZRANO $ =
2018-02-23 09:56 METAR KRUT 231456Z AUTO 13012G18KT 10SM SCT110 02/M07 A3055 RMK AO2 SLP371 P0003
                 60003 T00171067 58016 FZRANO $ =
2018-02-23 08:56 METAR KRUT 231356Z AUTO 14011KT 10SM FEW120 M01/M07 A3057 RMK AO2 SLP377
                 T10061067 FZRANO $ =
2018-02-23 07:56 METAR KRUT 231256Z AUTO 17011G16KT 10SM CLR M02/M08 A3060 RMK AO2 SLP383
                 T10171078 FZRANO $ =
2018-02-23 06:56 METAR KRUT 231156Z AUTO 17007KT 10SM OVC120 M06/M07 A3060 RMK AO2 SLP388
                 T10561067 11056 21083 58015 FZRANO $ =
2018-02-23 05:56 METAR KRUT 231056Z AUTO 17005KT 10SM CLR M08/M09 A3064 RMK AO2 SLP399 T10781089
                 FZRANO $ =
2018-02-23 04:56 METAR KRUT 230956Z AUTO 00000KT 10SM CLR M08/M08 A3065 RMK AO2 SLP405 T10781083
                 FZRANO $ =
2018-02-23 03:56 METAR KRUT 230856Z AUTO 11008KT 10SM CLR M07/M08 A3065 RMK AO2 SLP403 T10721083
                 58014 FZRANO $ =

Support USWX by starting your Amazon purchase here.